This is the latest recevied weather packets stored in our database for station/object HB9ZRH-10. If no packets are shown the sender has not sent any weather packets the latest 10 day(s).
| Time | Temp. | Humidity | Pressure | Rain* | Wind** | Luminosity | Snow |
|---|---|---|---|---|---|---|---|
| 1778140648 | 16.67° C | 48% | 1014 hPa | - | - | - | - |
| 1778140348 | 18.33° C | 48% | 1013.9 hPa | - | - | - | - |
| 1778140048 | 14.44° C | 52% | 1014 hPa | - | - | - | - |
| 1778139748 | 14.44° C | 50% | 1014.1 hPa | - | - | - | - |
| 1778139448 | 13.33° C | 51% | 1014 hPa | - | - | - | - |
| 1778139148 | 14.44° C | 49% | 1013.9 hPa | - | - | - | - |
| 1778138848 | 16.67° C | 48% | 1013.9 hPa | - | - | - | - |
| 1778138548 | 15° C | 50% | 1013.9 hPa | - | - | - | - |
| 1778138248 | 15.56° C | 48% | 1013.9 hPa | - | - | - | - |
| 1778137948 | 16.67° C | 47% | 1013.8 hPa | - | - | - | - |
| 1778137648 | 18.33° C | 46% | 1013.7 hPa | - | - | - | - |
| 1778137348 | 16.67° C | 48% | 1013.8 hPa | - | - | - | - |
| 1778137048 | 17.22° C | 48% | 1013.7 hPa | - | - | - | - |
| 1778136748 | 15.56° C | 48% | 1013.7 hPa | - | - | - | - |
| 1778136448 | 18.33° C | 45% | 1013.5 hPa | - | - | - | - |
| 1778136148 | 20° C | 45% | 1013.4 hPa | - | - | - | - |
| 1778135848 | 20° C | 45% | 1013.4 hPa | - | - | - | - |
| 1778135548 | 19.44° C | 44% | 1013.5 hPa | - | - | - | - |
| 1778135248 | 20° C | 45% | 1013.4 hPa | - | - | - | - |
| 1778134948 | 18.89° C | 46% | 1013.4 hPa | - | - | - | - |
| 1778134648 | 18.89° C | 46% | 1013.3 hPa | - | - | - | - |
| 1778134348 | 18.89° C | 46% | 1013.3 hPa | - | - | - | - |
| 1778134048 | 18.33° C | 46% | 1013.2 hPa | - | - | - | - |
| 1778133748 | 18.89° C | 46% | 1013.2 hPa | - | - | - | - |
| 1778133448 | 19.44° C | 45% | 1013.1 hPa | - | - | - | - |
* Rain since midnight (hover to see other rain measurements)
** Current wind speed in m/s (hover to see current wind gust speed)